sensor_id;sensor_type;location;lat;lon;timestamp;pressure;altitude;pressure_sealevel;temperature;humidity
6389;BME280;3227;42.654;23.360;2023-09-18T00:00:40;94939.25;;;18.31;100.00
6389;BME280;3227;42.654;23.360;2023-09-18T00:03:08;94859.25;;;17.77;100.00
6389;BME280;3227;42.654;23.360;2023-09-18T00:05:34;94933.34;;;18.25;100.00
6389;BME280;3227;42.654;23.360;2023-09-18T00:08:03;94924.84;;;18.19;100.00
6389;BME280;3227;42.654;23.360;2023-09-18T00:10:30;94930.13;;;18.14;100.00
6389;BME280;3227;42.654;23.360;2023-09-18T00:12:57;94925.84;;;18.12;100.00
6389;BME280;3227;42.654;23.360;2023-09-18T00:15:24;94930.28;;;18.08;100.00
6389;BME280;3227;42.654;23.360;2023-09-18T00:17:51;94918.31;;;18.03;100.00
6389;BME280;3227;42.654;23.360;2023-09-18T00:20:18;94926.00;;;18.06;100.00
6389;BME280;3227;42.654;23.360;2023-09-18T00:22:45;94932.84;;;18.10;100.00
6389;BME280;3227;42.654;23.360;2023-09-18T00:25:14;94919.75;;;18.14;100.00
6389;BME280;3227;42.654;23.360;2023-09-18T00:27:41;94917.28;;;18.10;100.00
6389;BME280;3227;42.654;23.360;2023-09-18T00:30:09;94921.53;;;18.12;100.00
6389;BME280;3227;42.654;23.360;2023-09-18T00:32:36;94929.31;;;18.12;100.00
6389;BME280;3227;42.654;23.360;2023-09-18T00:35:04;94928.44;;;18.12;100.00
6389;BME280;3227;42.654;23.360;2023-09-18T00:37:31;94929.34;;;18.11;100.00
6389;BME280;3227;42.654;23.360;2023-09-18T00:39:57;94921.78;;;18.02;100.00
6389;BME280;3227;42.654;23.360;2023-09-18T00:42:25;94930.47;;;17.99;100.00
6389;BME280;3227;42.654;23.360;2023-09-18T00:44:52;94937.50;;;17.94;100.00
6389;BME280;3227;42.654;23.360;2023-09-18T00:47:19;94930.59;;;17.95;100.00
6389;BME280;3227;42.654;23.360;2023-09-18T00:49:47;94933.19;;;17.95;100.00
6389;BME280;3227;42.654;23.360;2023-09-18T00:52:15;94939.06;;;18.03;100.00
6389;BME280;3227;42.654;23.360;2023-09-18T00:54:43;94935.66;;;17.99;100.00
6389;BME280;3227;42.654;23.360;2023-09-18T00:57:11;94939.13;;;17.98;100.00
6389;BME280;3227;42.654;23.360;2023-09-18T00:59:40;94933.94;;;18.00;100.00
6389;BME280;3227;42.654;23.360;2023-09-18T01:02:07;94943.44;;;17.99;100.00
6389;BME280;3227;42.654;23.360;2023-09-18T01:04:34;94899.97;;;17.72;100.00
6389;BME280;3227;42.654;23.360;2023-09-18T01:07:01;94892.31;;;17.67;100.00
6389;BME280;3227;42.654;23.360;2023-09-18T01:09:29;94944.94;;;18.09;100.00
6389;BME280;3227;42.654;23.360;2023-09-18T01:12:02;94947.53;;;18.09;100.00
6389;BME280;3227;42.654;23.360;2023-09-18T01:14:37;94951.09;;;18.04;100.00
6389;BME280;3227;42.654;23.360;2023-09-18T01:17:07;94955.47;;;18.03;100.00
6389;BME280;3227;42.654;23.360;2023-09-18T01:19:40;94945.88;;;18.05;100.00
6389;BME280;3227;42.654;23.360;2023-09-18T01:22:08;94945.97;;;18.02;100.00
6389;BME280;3227;42.654;23.360;2023-09-18T01:24:38;94943.31;;;18.04;100.00
6389;BME280;3227;42.654;23.360;2023-09-18T01:27:08;94950.28;;;18.03;100.00
6389;BME280;3227;42.654;23.360;2023-09-18T01:29:35;94944.13;;;18.07;100.00
6389;BME280;3227;42.654;23.360;2023-09-18T01:32:02;94949.50;;;17.98;100.00
6389;BME280;3227;42.654;23.360;2023-09-18T01:34:33;94939.13;;;17.98;100.00
6389;BME280;3227;42.654;23.360;2023-09-18T01:37:03;94897.28;;;17.76;100.00
6389;BME280;3227;42.654;23.360;2023-09-18T01:39:31;94945.09;;;18.03;100.00
6389;BME280;3227;42.654;23.360;2023-09-18T01:42:01;94844.59;;;17.36;100.00
6389;BME280;3227;42.654;23.360;2023-09-18T01:44:29;94945.03;;;18.05;100.00
6389;BME280;3227;42.654;23.360;2023-09-18T01:46:58;94944.94;;;18.09;100.00
6389;BME280;3227;42.654;23.360;2023-09-18T01:49:28;94945.78;;;18.11;100.00
6389;BME280;3227;42.654;23.360;2023-09-18T01:51:55;94943.22;;;18.10;100.00
6389;BME280;3227;42.654;23.360;2023-09-18T01:54:22;94941.56;;;18.06;100.00
6389;BME280;3227;42.654;23.360;2023-09-18T01:56:49;94940.69;;;18.05;100.00
6389;BME280;3227;42.654;23.360;2023-09-18T01:59:18;94940.84;;;17.99;100.00
6389;BME280;3227;42.654;23.360;2023-09-18T02:01:45;94946.75;;;18.06;100.00
6389;BME280;3227;42.654;23.360;2023-09-18T02:04:12;94957.13;;;18.06;100.00
6389;BME280;3227;42.654;23.360;2023-09-18T02:06:50;94952.94;;;18.00;100.00
6389;BME280;3227;42.654;23.360;2023-09-18T02:09:17;94954.56;;;18.04;100.00
6389;BME280;3227;42.654;23.360;2023-09-18T02:11:45;94958.09;;;18.02;100.00
6389;BME280;3227;42.654;23.360;2023-09-18T02:14:12;94956.25;;;18.05;100.00
6389;BME280;3227;42.654;23.360;2023-09-18T02:16:42;94951.97;;;18.04;100.00
6389;BME280;3227;42.654;23.360;2023-09-18T02:19:10;94947.75;;;18.00;100.00
6389;BME280;3227;42.654;23.360;2023-09-18T02:21:37;94957.97;;;18.06;100.00
6389;BME280;3227;42.654;23.360;2023-09-18T02:24:04;94957.94;;;18.08;100.00
6389;BME280;3227;42.654;23.360;2023-09-18T02:26:31;94953.69;;;18.04;100.00
6389;BME280;3227;42.654;23.360;2023-09-18T02:28:59;94949.50;;;17.98;100.00
6389;BME280;3227;42.654;23.360;2023-09-18T02:31:26;94967.63;;;18.00;100.00
6389;BME280;3227;42.654;23.360;2023-09-18T02:33:55;94957.25;;;18.00;100.00
6389;BME280;3227;42.654;23.360;2023-09-18T02:36:22;94952.91;;;18.02;100.00
6389;BME280;3227;42.654;23.360;2023-09-18T02:38:48;94959.06;;;17.96;100.00
6389;BME280;3227;42.654;23.360;2023-09-18T02:41:15;94955.78;;;17.88;100.00
6389;BME280;3227;42.654;23.360;2023-09-18T02:43:42;94949.00;;;17.82;100.00
6389;BME280;3227;42.654;23.360;2023-09-18T02:46:09;94949.72;;;17.87;100.00
6389;BME280;3227;42.654;23.360;2023-09-18T02:48:36;94951.50;;;17.87;100.00
6389;BME280;3227;42.654;23.360;2023-09-18T02:51:06;94961.81;;;17.88;100.00
6389;BME280;3227;42.654;23.360;2023-09-18T02:53:33;94951.56;;;17.84;100.00
6389;BME280;3227;42.654;23.360;2023-09-18T02:56:00;94833.94;;;17.08;100.00
6389;BME280;3227;42.654;23.360;2023-09-18T02:58:27;94953.44;;;17.77;100.00
6389;BME280;3227;42.654;23.360;2023-09-18T03:00:56;94951.75;;;17.75;100.00
6389;BME280;3227;42.654;23.360;2023-09-18T03:03:23;94950.00;;;17.75;100.00
6389;BME280;3227;42.654;23.360;2023-09-18T03:05:50;94956.09;;;17.73;100.00
6389;BME280;3227;42.654;23.360;2023-09-18T03:08:18;94954.28;;;17.78;100.00
6389;BME280;3227;42.654;23.360;2023-09-18T03:10:45;94957.69;;;17.80;100.00
6389;BME280;3227;42.654;23.360;2023-09-18T03:13:14;94963.00;;;17.74;100.00
6389;BME280;3227;42.654;23.360;2023-09-18T03:15:44;94953.69;;;17.64;100.00
6389;BME280;3227;42.654;23.360;2023-09-18T03:18:11;94953.69;;;17.64;100.00
6389;BME280;3227;42.654;23.360;2023-09-18T03:20:38;94950.31;;;17.62;100.00
6389;BME280;3227;42.654;23.360;2023-09-18T03:23:05;94955.38;;;17.66;100.00
6389;BME280;3227;42.654;23.360;2023-09-18T03:25:44;94947.50;;;17.71;100.00
6389;BME280;3227;42.654;23.360;2023-09-18T03:28:11;94949.22;;;17.72;100.00
6389;BME280;3227;42.654;23.360;2023-09-18T03:30:38;94942.22;;;17.75;100.00
6389;BME280;3227;42.654;23.360;2023-09-18T03:33:04;94937.19;;;17.69;100.00
6389;BME280;3227;42.654;23.360;2023-09-18T03:35:46;94933.75;;;17.69;100.00
6389;BME280;3227;42.654;23.360;2023-09-18T03:38:14;94936.41;;;17.64;100.00
6389;BME280;3227;42.654;23.360;2023-09-18T03:40:42;94931.25;;;17.63;100.00
6389;BME280;3227;42.654;23.360;2023-09-18T03:43:10;94939.94;;;17.62;100.00
6389;BME280;3227;42.654;23.360;2023-09-18T03:45:38;94934.91;;;17.53;100.00
6389;BME280;3227;42.654;23.360;2023-09-18T03:48:06;94928.06;;;17.48;100.00
6389;BME280;3227;42.654;23.360;2023-09-18T03:50:33;94924.84;;;17.37;100.00
6389;BME280;3227;42.654;23.360;2023-09-18T03:52:59;94928.44;;;17.30;100.00
6389;BME280;3227;42.654;23.360;2023-09-18T03:55:31;94936.28;;;17.27;100.00
6389;BME280;3227;42.654;23.360;2023-09-18T03:57:59;94923.47;;;17.21;100.00
6389;BME280;3227;42.654;23.360;2023-09-18T04:00:26;94921.03;;;17.12;100.00
6389;BME280;3227;42.654;23.360;2023-09-18T04:02:53;94935.66;;;17.13;100.00
6389;BME280;3227;42.654;23.360;2023-09-18T04:05:20;94926.94;;;17.19;100.00
6389;BME280;3227;42.654;23.360;2023-09-18T04:07:47;94934.88;;;17.11;100.00
6389;BME280;3227;42.654;23.360;2023-09-18T04:10:14;94874.25;;;16.77;100.00
6389;BME280;3227;42.654;23.360;2023-09-18T04:12:45;94938.34;;;17.10;100.00
6389;BME280;3227;42.654;23.360;2023-09-18T04:15:15;94934.03;;;17.09;100.00
6389;BME280;3227;42.654;23.360;2023-09-18T04:17:43;94928.97;;;17.03;100.00
6389;BME280;3227;42.654;23.360;2023-09-18T04:20:10;94939.94;;;17.16;100.00
6389;BME280;3227;42.654;23.360;2023-09-18T04:22:47;94896.56;;;16.81;100.00
6389;BME280;3227;42.654;23.360;2023-09-18T04:25:15;94940.91;;;17.10;100.00
6389;BME280;3227;42.654;23.360;2023-09-18T04:27:42;94940.09;;;17.08;100.00
6389;BME280;3227;42.654;23.360;2023-09-18T04:30:09;94946.94;;;17.12;100.00
6389;BME280;3227;42.654;23.360;2023-09-18T04:32:38;94927.28;;;17.00;100.00
6389;BME280;3227;42.654;23.360;2023-09-18T04:35:05;94942.66;;;17.09;100.00
6389;BME280;3227;42.654;23.360;2023-09-18T04:37:37;94937.28;;;17.20;100.00
6389;BME280;3227;42.654;23.360;2023-09-18T04:40:05;94887.75;;;16.92;100.00
6389;BME280;3227;42.654;23.360;2023-09-18T04:42:35;94944.56;;;17.44;100.00
6389;BME280;3227;42.654;23.360;2023-09-18T04:45:02;94946.03;;;17.56;100.00
6389;BME280;3227;42.654;23.360;2023-09-18T04:47:29;94948.19;;;17.79;100.00
6389;BME280;3227;42.654;23.360;2023-09-18T04:49:57;94941.13;;;17.87;100.00
6389;BME280;3227;42.654;23.360;2023-09-18T04:52:24;94944.06;;;18.10;100.00
6389;BME280;3227;42.654;23.360;2023-09-18T04:54:51;94951.41;;;18.29;100.00
6389;BME280;3227;42.654;23.360;2023-09-18T04:57:19;94941.63;;;18.40;100.00
6389;BME280;3227;42.654;23.360;2023-09-18T04:59:47;94941.47;;;18.46;99.90
6389;BME280;3227;42.654;23.360;2023-09-18T05:02:14;94943.63;;;18.66;98.78
6389;BME280;3227;42.654;23.360;2023-09-18T05:04:41;94938.91;;;18.81;97.71
6389;BME280;3227;42.654;23.360;2023-09-18T05:07:09;94935.72;;;19.04;96.67
6389;BME280;3227;42.654;23.360;2023-09-18T05:09:36;94936.94;;;19.23;95.11
6389;BME280;3227;42.654;23.360;2023-09-18T05:12:04;94941.91;;;19.32;93.88
6389;BME280;3227;42.654;23.360;2023-09-18T05:14:34;94940.47;;;19.53;93.30
6389;BME280;3227;42.654;23.360;2023-09-18T05:17:00;94948.38;;;19.80;91.83
6389;BME280;3227;42.654;23.360;2023-09-18T05:19:27;94946.22;;;19.94;89.87
6389;BME280;3227;42.654;23.360;2023-09-18T05:21:54;94788.19;;;19.17;88.95
6389;BME280;3227;42.654;23.360;2023-09-18T05:24:22;94962.41;;;20.61;86.93
6389;BME280;3227;42.654;23.360;2023-09-18T05:26:52;94955.41;;;20.89;85.17
6389;BME280;3227;42.654;23.360;2023-09-18T05:29:19;94952.03;;;21.12;83.86
6389;BME280;3227;42.654;23.360;2023-09-18T05:31:46;94961.91;;;21.29;82.61
6389;BME280;3227;42.654;23.360;2023-09-18T05:34:13;94957.91;;;21.43;82.25
6389;BME280;3227;42.654;23.360;2023-09-18T05:36:40;94893.84;;;21.36;81.08
6389;BME280;3227;42.654;23.360;2023-09-18T05:39:07;94973.03;;;22.07;79.26
6389;BME280;3227;42.654;23.360;2023-09-18T05:41:37;94969.41;;;22.09;77.33
6389;BME280;3227;42.654;23.360;2023-09-18T05:44:04;94970.84;;;22.18;76.77
6389;BME280;3227;42.654;23.360;2023-09-18T05:46:33;94966.91;;;22.29;76.30
6389;BME280;3227;42.654;23.360;2023-09-18T05:49:00;94977.59;;;22.23;75.28
6389;BME280;3227;42.654;23.360;2023-09-18T05:51:27;94971.09;;;21.87;76.87
6389;BME280;3227;42.654;23.360;2023-09-18T05:53:54;94979.69;;;21.90;78.40
6389;BME280;3227;42.654;23.360;2023-09-18T05:56:21;94947.91;;;21.79;77.03
6389;BME280;3227;42.654;23.360;2023-09-18T05:58:50;94978.63;;;21.71;78.48
6389;BME280;3227;42.654;23.360;2023-09-18T06:01:18;94984.56;;;21.75;78.84
6389;BME280;3227;42.654;23.360;2023-09-18T06:03:45;94974.63;;;21.86;78.52
6389;BME280;3227;42.654;23.360;2023-09-18T06:06:13;94906.38;;;21.50;78.10
6389;BME280;3227;42.654;23.360;2023-09-18T06:08:39;94978.91;;;22.12;77.48
6389;BME280;3227;42.654;23.360;2023-09-18T06:11:06;94975.53;;;22.31;76.89
6389;BME280;3227;42.654;23.360;2023-09-18T06:13:33;94974.94;;;22.47;76.25
6389;BME280;3227;42.654;23.360;2023-09-18T06:16:05;94976.91;;;22.63;75.17
6389;BME280;3227;42.654;23.360;2023-09-18T06:18:33;94962.72;;;22.69;75.00
6389;BME280;3227;42.654;23.360;2023-09-18T06:21:01;94970.97;;;22.15;75.73
6389;BME280;3227;42.654;23.360;2023-09-18T06:23:28;94975.81;;;21.77;77.66
6389;BME280;3227;42.654;23.360;2023-09-18T06:25:54;94971.91;;;21.66;77.92
6389;BME280;3227;42.654;23.360;2023-09-18T06:28:22;94973.13;;;21.55;79.53
6389;BME280;3227;42.654;23.360;2023-09-18T06:30:48;94978.09;;;21.61;78.50
6389;BME280;3227;42.654;23.360;2023-09-18T06:33:16;94974.88;;;21.55;79.26
6389;BME280;3227;42.654;23.360;2023-09-18T06:35:43;94982.72;;;21.78;78.23
6389;BME280;3227;42.654;23.360;2023-09-18T06:38:10;94981.19;;;21.96;77.67
6389;BME280;3227;42.654;23.360;2023-09-18T06:40:38;94981.72;;;21.82;77.60
6389;BME280;3227;42.654;23.360;2023-09-18T06:43:05;94980.13;;;21.78;77.63
6389;BME280;3227;42.654;23.360;2023-09-18T06:45:31;94980.28;;;21.74;77.55
6389;BME280;3227;42.654;23.360;2023-09-18T06:47:59;94939.09;;;21.09;79.33
6389;BME280;3227;42.654;23.360;2023-09-18T06:50:28;94976.53;;;21.57;79.73
6389;BME280;3227;42.654;23.360;2023-09-18T06:52:54;94972.44;;;21.98;76.85
6389;BME280;3227;42.654;23.360;2023-09-18T06:55:21;94983.56;;;22.04;76.78
6389;BME280;3227;42.654;23.360;2023-09-18T06:57:48;94979.91;;;22.08;76.21
6389;BME280;3227;42.654;23.360;2023-09-18T07:00:17;94963.88;;;21.70;77.19
6389;BME280;3227;42.654;23.360;2023-09-18T07:02:46;94965.03;;;21.86;77.25
6389;BME280;3227;42.654;23.360;2023-09-18T07:05:15;94955.41;;;22.12;76.67
6389;BME280;3227;42.654;23.360;2023-09-18T07:07:43;94987.97;;;22.01;75.89
6389;BME280;3227;42.654;23.360;2023-09-18T07:10:10;94986.19;;;22.25;75.12
6389;BME280;3227;42.654;23.360;2023-09-18T07:12:37;94974.69;;;22.53;74.29
6389;BME280;3227;42.654;23.360;2023-09-18T07:15:06;94981.53;;;22.79;73.77
6389;BME280;3227;42.654;23.360;2023-09-18T07:17:33;94982.31;;;23.02;72.19
6389;BME280;3227;42.654;23.360;2023-09-18T07:20:00;94986.94;;;22.96;71.91
6389;BME280;3227;42.654;23.360;2023-09-18T07:22:33;94964.91;;;22.81;71.85
6389;BME280;3227;42.654;23.360;2023-09-18T07:25:01;94982.72;;;23.13;71.03
6389;BME280;3227;42.654;23.360;2023-09-18T07:27:28;94981.22;;;23.28;69.57
6389;BME280;3227;42.654;23.360;2023-09-18T07:29:56;94982.19;;;23.26;70.08
6389;BME280;3227;42.654;23.360;2023-09-18T07:32:23;94985.59;;;23.28;69.64
6389;BME280;3227;42.654;23.360;2023-09-18T07:34:52;94998.06;;;23.41;69.22
6389;BME280;3227;42.654;23.360;2023-09-18T07:37:18;94986.91;;;23.38;69.30
6389;BME280;3227;42.654;23.360;2023-09-18T07:39:47;94982.28;;;23.65;68.88
6389;BME280;3227;42.654;23.360;2023-09-18T07:42:15;94969.44;;;23.79;67.63
6389;BME280;3227;42.654;23.360;2023-09-18T07:44:41;94988.19;;;23.88;66.07
6389;BME280;3227;42.654;23.360;2023-09-18T07:47:08;94987.44;;;23.86;66.00
6389;BME280;3227;42.654;23.360;2023-09-18T07:49:35;94984.59;;;23.91;66.48
6389;BME280;3227;42.654;23.360;2023-09-18T07:52:02;94985.75;;;24.04;66.60
6389;BME280;3227;42.654;23.360;2023-09-18T07:54:29;94988.41;;;24.23;65.67
6389;BME280;3227;42.654;23.360;2023-09-18T07:56:55;94986.44;;;24.28;65.60
6389;BME280;3227;42.654;23.360;2023-09-18T07:59:23;94979.78;;;24.21;64.51
6389;BME280;3227;42.654;23.360;2023-09-18T08:01:50;94977.22;;;24.19;64.66
6389;BME280;3227;42.654;23.360;2023-09-18T08:04:17;94985.66;;;24.06;63.92
6389;BME280;3227;42.654;23.360;2023-09-18T08:06:44;94979.19;;;23.96;64.97
6389;BME280;3227;42.654;23.360;2023-09-18T08:09:11;94963.97;;;23.65;65.71
6389;BME280;3227;42.654;23.360;2023-09-18T08:11:38;94954.16;;;23.49;66.15
6389;BME280;3227;42.654;23.360;2023-09-18T08:14:07;94964.13;;;23.62;66.18
6389;BME280;3227;42.654;23.360;2023-09-18T08:16:38;94967.31;;;23.68;66.75
6389;BME280;3227;42.654;23.360;2023-09-18T08:19:04;94968.34;;;23.64;66.28
6389;BME280;3227;42.654;23.360;2023-09-18T08:21:32;94945.72;;;23.43;66.62
6389;BME280;3227;42.654;23.360;2023-09-18T08:23:58;94962.13;;;23.67;66.55
6389;BME280;3227;42.654;23.360;2023-09-18T08:26:25;94971.16;;;23.80;66.26
6389;BME280;3227;42.654;23.360;2023-09-18T08:28:52;94972.94;;;23.98;64.39
6389;BME280;3227;42.654;23.360;2023-09-18T08:31:19;94965.94;;;23.60;65.74
6389;BME280;3227;42.654;23.360;2023-09-18T08:33:47;94958.81;;;23.63;66.02
6389;BME280;3227;42.654;23.360;2023-09-18T08:36:14;94962.53;;;23.58;66.25
6389;BME280;3227;42.654;23.360;2023-09-18T08:38:41;94967.81;;;23.36;66.22
6389;BME280;3227;42.654;23.360;2023-09-18T08:41:09;94961.41;;;23.43;66.64
6389;BME280;3227;42.654;23.360;2023-09-18T08:43:37;94925.41;;;23.29;67.18
6389;BME280;3227;42.654;23.360;2023-09-18T08:46:07;94943.25;;;23.60;66.62
6389;BME280;3227;42.654;23.360;2023-09-18T08:48:34;94935.94;;;23.87;66.80
6389;BME280;3227;42.654;23.360;2023-09-18T08:51:05;94904.38;;;23.90;64.75
6389;BME280;3227;42.654;23.360;2023-09-18T08:53:33;94940.78;;;24.34;63.41
6389;BME280;3227;42.654;23.360;2023-09-18T08:56:01;94949.97;;;24.23;62.64
6389;BME280;3227;42.654;23.360;2023-09-18T08:58:29;94943.53;;;24.31;62.61
6389;BME280;3227;42.654;23.360;2023-09-18T09:00:58;94942.44;;;24.16;62.24
6389;BME280;3227;42.654;23.360;2023-09-18T09:03:26;94864.50;;;23.85;61.71
6389;BME280;3227;42.654;23.360;2023-09-18T09:05:53;94947.41;;;24.41;59.89
6389;BME280;3227;42.654;23.360;2023-09-18T09:08:21;94889.91;;;24.20;60.43
6389;BME280;3227;42.654;23.360;2023-09-18T09:10:48;94937.59;;;24.63;59.53
6389;BME280;3227;42.654;23.360;2023-09-18T09:13:15;94939.72;;;24.38;59.72
6389;BME280;3227;42.654;23.360;2023-09-18T09:15:44;94940.16;;;24.29;59.79
6389;BME280;3227;42.654;23.360;2023-09-18T09:18:12;94943.25;;;24.37;59.79
6389;BME280;3227;42.654;23.360;2023-09-18T09:20:40;94948.38;;;24.21;59.41
6389;BME280;3227;42.654;23.360;2023-09-18T09:23:09;94936.22;;;24.18;60.21
6389;BME280;3227;42.654;23.360;2023-09-18T09:25:37;94937.44;;;24.30;60.57
6389;BME280;3227;42.654;23.360;2023-09-18T09:28:05;94934.81;;;24.30;60.65
6389;BME280;3227;42.654;23.360;2023-09-18T09:30:33;94901.78;;;24.27;60.30
6389;BME280;3227;42.654;23.360;2023-09-18T09:33:03;94927.59;;;24.54;59.50
6389;BME280;3227;42.654;23.360;2023-09-18T09:35:31;94929.06;;;24.59;59.38
6389;BME280;3227;42.654;23.360;2023-09-18T09:38:00;94859.03;;;24.08;58.70
6389;BME280;3227;42.654;23.360;2023-09-18T09:40:29;94894.97;;;24.23;58.81
6389;BME280;3227;42.654;23.360;2023-09-18T09:43:00;94926.41;;;24.23;59.26
6389;BME280;3227;42.654;23.360;2023-09-18T09:45:28;94920.75;;;24.33;58.90
6389;BME280;3227;42.654;23.360;2023-09-18T09:47:57;94913.22;;;24.44;58.89
6389;BME280;3227;42.654;23.360;2023-09-18T09:50:24;94918.03;;;24.53;58.70
6389;BME280;3227;42.654;23.360;2023-09-18T09:52:53;94918.09;;;24.51;57.44
6389;BME280;3227;42.654;23.360;2023-09-18T09:55:23;94906.44;;;24.40;57.82
6389;BME280;3227;42.654;23.360;2023-09-18T09:57:53;94913.38;;;24.03;57.74
6389;BME280;3227;42.654;23.360;2023-09-18T10:00:24;94902.84;;;24.23;56.51
6389;BME280;3227;42.654;23.360;2023-09-18T10:03:00;94915.22;;;24.20;56.87
6389;BME280;3227;42.654;23.360;2023-09-18T10:05:30;94906.44;;;24.02;57.72
6389;BME280;3227;42.654;23.360;2023-09-18T10:07:59;94905.66;;;24.00;58.14
6389;BME280;3227;42.654;23.360;2023-09-18T10:10:30;94860.31;;;23.81;58.22
6389;BME280;3227;42.654;23.360;2023-09-18T10:13:00;94903.41;;;24.11;57.22
6389;BME280;3227;42.654;23.360;2023-09-18T10:15:33;94859.31;;;23.83;57.49
6389;BME280;3227;42.654;23.360;2023-09-18T10:18:05;94881.84;;;23.87;57.25
6389;BME280;3227;42.654;23.360;2023-09-18T10:20:37;94880.56;;;23.96;56.99
6389;BME280;3227;42.654;23.360;2023-09-18T10:23:15;94827.66;;;23.71;56.14
6389;BME280;3227;42.654;23.360;2023-09-18T10:25:51;94891.16;;;24.12;56.72
6389;BME280;3227;42.654;23.360;2023-09-18T10:28:21;94886.59;;;23.97;56.41
6389;BME280;3227;42.654;23.360;2023-09-18T10:30:50;94902.69;;;24.08;54.82
6389;BME280;3227;42.654;23.360;2023-09-18T10:33:18;94884.44;;;24.25;54.73
6389;BME280;3227;42.654;23.360;2023-09-18T10:35:46;94877.69;;;24.38;54.18
6389;BME280;3227;42.654;23.360;2023-09-18T10:38:15;94882.72;;;24.43;53.39
6389;BME280;3227;42.654;23.360;2023-09-18T10:40:43;94873.41;;;24.54;54.13
6389;BME280;3227;42.654;23.360;2023-09-18T10:43:11;94863.03;;;24.70;54.06
6389;BME280;3227;42.654;23.360;2023-09-18T10:45:39;94874.59;;;24.83;53.24
6389;BME280;3227;42.654;23.360;2023-09-18T10:48:08;94867.91;;;24.78;53.15
6389;BME280;3227;42.654;23.360;2023-09-18T10:50:36;94865.56;;;24.89;52.79
6389;BME280;3227;42.654;23.360;2023-09-18T10:53:05;94845.16;;;24.95;52.73
6389;BME280;3227;42.654;23.360;2023-09-18T10:55:31;94838.44;;;24.90;52.39
6389;BME280;3227;42.654;23.360;2023-09-18T10:58:00;94864.59;;;24.91;52.37
6389;BME280;3227;42.654;23.360;2023-09-18T11:00:28;94845.91;;;24.80;52.41
6389;BME280;3227;42.654;23.360;2023-09-18T11:03:11;94850.44;;;24.42;53.46
6389;BME280;3227;42.654;23.360;2023-09-18T11:05:39;94854.66;;;24.27;53.95
6389;BME280;3227;42.654;23.360;2023-09-18T11:08:24;94845.56;;;24.35;52.83
6389;BME280;3227;42.654;23.360;2023-09-18T11:11:05;94852.53;;;24.53;53.03
6389;BME280;3227;42.654;23.360;2023-09-18T11:13:39;94840.66;;;24.63;52.74
6389;BME280;3227;42.654;23.360;2023-09-18T11:16:17;94853.16;;;24.75;52.24
6389;BME280;3227;42.654;23.360;2023-09-18T11:18:52;94841.22;;;24.70;51.60
6389;BME280;3227;42.654;23.360;2023-09-18T11:21:23;94834.97;;;24.72;51.21
6389;BME280;3227;42.654;23.360;2023-09-18T11:23:58;94838.75;;;24.84;51.66
6389;BME280;3227;42.654;23.360;2023-09-18T11:26:28;94830.44;;;24.93;51.10
6389;BME280;3227;42.654;23.360;2023-09-18T11:28:56;94832.66;;;24.66;51.42
6389;BME280;3227;42.654;23.360;2023-09-18T11:31:44;94831.72;;;24.67;51.14
6389;BME280;3227;42.654;23.360;2023-09-18T11:34:14;94748.50;;;24.55;50.73
6389;BME280;3227;42.654;23.360;2023-09-18T11:36:41;94827.38;;;25.02;50.45
6389;BME280;3227;42.654;23.360;2023-09-18T11:39:08;94824.34;;;24.92;50.42
6389;BME280;3227;42.654;23.360;2023-09-18T11:41:36;94825.81;;;24.98;50.04
6389;BME280;3227;42.654;23.360;2023-09-18T11:44:31;94796.19;;;24.96;49.28
6389;BME280;3227;42.654;23.360;2023-09-18T11:46:59;94814.03;;;25.22;49.28
6389;BME280;3227;42.654;23.360;2023-09-18T11:49:27;94812.22;;;25.40;49.03
6389;BME280;3227;42.654;23.360;2023-09-18T11:51:58;94809.97;;;25.50;49.44
6389;BME280;3227;42.654;23.360;2023-09-18T11:54:27;94818.22;;;25.59;48.81
6389;BME280;3227;42.654;23.360;2023-09-18T11:56:54;94806.03;;;25.74;47.70
6389;BME280;3227;42.654;23.360;2023-09-18T11:59:33;94799.53;;;25.97;47.51
6389;BME280;3227;42.654;23.360;2023-09-18T12:02:01;94794.78;;;25.88;47.17
6389;BME280;3227;42.654;23.360;2023-09-18T12:04:32;94792.16;;;25.88;47.60
6389;BME280;3227;42.654;23.360;2023-09-18T12:06:59;94802.84;;;25.69;47.59
6389;BME280;3227;42.654;23.360;2023-09-18T12:09:29;94799.06;;;25.57;48.74
6389;BME280;3227;42.654;23.360;2023-09-18T12:11:56;94767.72;;;25.54;48.49
6389;BME280;3227;42.654;23.360;2023-09-18T12:14:23;94803.34;;;25.91;48.00
6389;BME280;3227;42.654;23.360;2023-09-18T12:16:50;94797.50;;;26.02;47.69
6389;BME280;3227;42.654;23.360;2023-09-18T12:19:17;94800.13;;;25.53;49.84
6389;BME280;3227;42.654;23.360;2023-09-18T12:21:47;94794.84;;;25.22;50.96
6389;BME280;3227;42.654;23.360;2023-09-18T12:24:14;94791.59;;;25.34;51.10
6389;BME280;3227;42.654;23.360;2023-09-18T12:26:42;94794.16;;;25.18;51.95
6389;BME280;3227;42.654;23.360;2023-09-18T12:29:09;94782.53;;;24.89;52.42
6389;BME280;3227;42.654;23.360;2023-09-18T12:31:37;94801.97;;;24.85;53.29
6389;BME280;3227;42.654;23.360;2023-09-18T12:34:05;94789.53;;;24.89;53.15
6389;BME280;3227;42.654;23.360;2023-09-18T12:36:32;94789.34;;;25.11;52.58
6389;BME280;3227;42.654;23.360;2023-09-18T12:39:01;94791.25;;;25.07;52.70
6389;BME280;3227;42.654;23.360;2023-09-18T12:41:28;94785.63;;;24.80;53.18
6389;BME280;3227;42.654;23.360;2023-09-18T12:43:56;94783.69;;;24.32;54.78
6389;BME280;3227;42.654;23.360;2023-09-18T12:46:23;94772.97;;;24.19;55.11
6389;BME280;3227;42.654;23.360;2023-09-18T12:48:50;94779.56;;;24.45;54.55
6389;BME280;3227;42.654;23.360;2023-09-18T12:51:17;94779.47;;;24.64;54.17
6389;BME280;3227;42.654;23.360;2023-09-18T12:53:48;94769.31;;;24.92;53.67
6389;BME280;3227;42.654;23.360;2023-09-18T12:56:26;94772.34;;;25.18;52.17
6389;BME280;3227;42.654;23.360;2023-09-18T12:58:57;94795.81;;;25.36;51.11
6389;BME280;3227;42.654;23.360;2023-09-18T13:01:24;94777.91;;;25.45;50.82
6389;BME280;3227;42.654;23.360;2023-09-18T13:03:53;94738.94;;;25.37;50.20
6389;BME280;3227;42.654;23.360;2023-09-18T13:06:21;94777.25;;;25.72;49.94
6389;BME280;3227;42.654;23.360;2023-09-18T13:08:49;94768.81;;;25.67;50.27
6389;BME280;3227;42.654;23.360;2023-09-18T13:11:18;94764.41;;;25.68;50.26
6389;BME280;3227;42.654;23.360;2023-09-18T13:13:57;94766.66;;;25.10;50.98